Time;durP1;ratioP1;P1;durP2;ratioP2;P2;SDS_P1;SDS_P2;PMS_P1;PMS_P2;Temp;Humidity;BMP_temperature;BMP_pressure;BME280_temperature;BME280_humidity;BME280_pressure;Samples;Min_cycle;Max_cycle;Signal;HPM_P1;HPM_P2
2022/12/05 00:02:08;;;;;;;;;30.25;27.00;;;;;6.99;68.58;101181.09;5004382;28;46379;-82
2022/12/05 00:04:33;;;;;;;;;30.50;29.00;;;;;7.01;68.65;101181.06;5002739;28;45947;-82
2022/12/05 00:06:59;;;;;;;;;29.00;26.75;;;;;6.97;68.26;101188.19;5007551;28;45483;-82
2022/12/05 00:09:24;;;;;;;;;32.50;28.00;;;;;6.95;68.61;101192.66;5004387;28;45456;-82
2022/12/05 00:11:49;;;;;;;;;30.75;28.00;;;;;6.91;67.96;101185.59;5012955;28;45590;-82
2022/12/05 00:14:15;;;;;;;;;36.75;29.50;;;;;6.88;68.39;101190.94;5005982;28;45532;-82
2022/12/05 00:16:42;;;;;;;;;30.75;23.00;;;;;6.89;68.63;101197.13;5001124;28;45364;-82
2022/12/05 00:19:09;;;;;;;;;39.25;35.50;;;;;6.87;68.15;101194.50;5012505;28;45479;-82
2022/12/05 00:21:36;;;;;;;;;33.50;27.75;;;;;6.83;67.91;101208.66;5006728;28;46721;-82
2022/12/05 00:24:03;;;;;;;;;34.00;31.75;;;;;6.83;67.98;101201.63;5005701;28;47116;-82
2022/12/05 00:26:30;;;;;;;;;35.25;28.50;;;;;6.81;68.38;101194.53;5001397;28;45745;-82
2022/12/05 00:28:56;;;;;;;;;28.00;24.00;;;;;6.85;68.09;101194.50;5005734;28;45336;-82
2022/12/05 00:31:24;;;;;;;;;32.00;28.50;;;;;6.82;67.87;101194.53;5004116;28;45268;-82
2022/12/05 00:33:50;;;;;;;;;35.75;28.25;;;;;6.80;68.06;101203.38;5001127;28;46347;-82
2022/12/05 00:36:19;;;;;;;;;31.00;26.50;;;;;6.79;68.75;101191.91;5007541;28;45439;-82
2022/12/05 00:38:44;;;;;;;;;37.50;29.50;;;;;6.82;67.64;101209.59;5005486;28;45402;-82
2022/12/05 00:41:15;;;;;;;;;41.75;32.25;;;;;6.79;68.85;101201.66;5006837;28;45443;-82
2022/12/05 00:43:41;;;;;;;;;35.75;29.25;;;;;6.77;68.18;101203.44;5009553;28;46736;-82
2022/12/05 00:46:10;;;;;;;;;35.00;29.00;;;;;6.74;67.79;101201.69;5004095;28;45686;-82
2022/12/05 00:48:36;;;;;;;;;41.00;32.00;;;;;6.75;68.78;101197.25;5009097;28;45338;-82
2022/12/05 00:51:09;;;;;;;;;31.75;28.75;;;;;6.76;68.85;101193.72;5007240;28;45332;-81
2022/12/05 00:53:34;;;;;;;;;32.75;28.25;;;;;6.81;68.56;101197.19;5007231;28;46224;-82
2022/12/05 00:56:05;;;;;;;;;28.50;20.75;;;;;6.83;68.33;101201.63;5006966;28;45696;-82
2022/12/05 00:58:31;;;;;;;;;37.50;32.00;;;;;6.86;68.90;101206.88;5010684;28;45680;-82
2022/12/05 01:00:57;;;;;;;;;20.75;18.75;;;;;6.90;68.76;101207.75;5007490;28;45572;-82
2022/12/05 01:03:22;;;;;;;;;40.25;28.00;;;;;6.95;68.60;101220.94;5008394;28;46007;-82
2022/12/05 01:05:47;;;;;;;;;32.00;29.00;;;;;6.94;68.46;101222.72;5010025;28;45604;-82
2022/12/05 01:08:13;;;;;;;;;31.75;29.00;;;;;6.90;67.91;101205.09;5012432;28;45525;-82
2022/12/05 01:10:38;;;;;;;;;32.75;28.50;;;;;6.89;68.16;101207.75;5008982;28;46792;-82
2022/12/05 01:13:03;;;;;;;;;38.00;32.75;;;;;6.90;68.66;101209.50;5013507;28;45265;-82
2022/12/05 01:15:29;;;;;;;;;33.75;28.75;;;;;6.87;67.95;101218.38;5000298;28;45385;-82
2022/12/05 01:17:54;;;;;;;;;30.50;25.75;;;;;6.85;68.73;101230.78;5007320;28;45409;-82
2022/12/05 01:20:19;;;;;;;;;29.25;24.25;;;;;6.90;68.89;101234.28;5006237;28;45610;-82
2022/12/05 01:22:45;;;;;;;;;38.75;33.50;;;;;6.90;68.77;101230.72;5010321;28;45550;-82
2022/12/05 01:25:10;;;;;;;;;40.00;32.25;;;;;6.97;68.24;101235.09;5007576;28;45573;-82
2022/12/05 01:27:35;;;;;;;;;31.00;28.25;;;;;6.92;68.05;101226.31;5009177;28;45405;-82
2022/12/05 01:30:01;;;;;;;;;34.00;29.75;;;;;6.94;68.47;101235.13;5005819;28;45333;-82
2022/12/05 01:32:26;;;;;;;;;35.75;27.25;;;;;6.98;68.52;101247.47;5009691;28;46154;-82
2022/12/05 01:34:51;;;;;;;;;27.50;24.00;;;;;6.98;68.49;101237.75;5006515;28;45440;-82
2022/12/05 01:37:17;;;;;;;;;35.25;28.50;;;;;7.01;68.30;101245.66;5011047;28;45317;-82
2022/12/05 01:39:42;;;;;;;;;34.75;30.00;;;;;6.98;68.85;101251.00;5000116;28;45550;-82
2022/12/05 01:42:07;;;;;;;;;36.00;29.00;;;;;6.99;68.83;101252.75;5006888;28;45373;-82
2022/12/05 01:44:33;;;;;;;;;32.25;26.25;;;;;7.03;68.69;101265.13;5006061;28;45469;-82
2022/12/05 01:46:58;;;;;;;;;36.25;28.75;;;;;7.03;68.76;101265.13;5006673;28;45501;-82
2022/12/05 01:49:34;;;;;;;;;30.50;26.00;;;;;7.03;68.25;101269.53;5016424;28;45755;-82
2022/12/05 01:52:06;;;;;;;;;36.00;30.25;;;;;6.97;67.89;101272.25;5001057;28;46356;-81
2022/12/05 01:54:35;;;;;;;;;37.75;33.25;;;;;6.95;67.74;101287.28;5001529;28;45491;-81
2022/12/05 01:57:05;;;;;;;;;32.75;30.25;;;;;6.83;67.49;101297.16;5006439;28;45714;-82
2022/12/05 01:59:35;;;;;;;;;37.75;31.25;;;;;6.78;68.12;101295.41;5008752;28;45301;-81
2022/12/05 02:02:01;;;;;;;;;37.00;33.25;;;;;6.75;68.36;101298.06;5012557;28;45493;-81
2022/12/05 02:04:27;;;;;;;;;38.50;33.75;;;;;6.76;68.47;101298.06;4993314;28;45516;-81
2022/12/05 02:06:53;;;;;;;;;35.00;32.25;;;;;6.81;68.48;101296.25;5004442;28;45692;-81
2022/12/05 02:09:19;;;;;;;;;31.00;28.00;;;;;6.82;68.30;101300.69;4997795;28;45640;-81
2022/12/05 02:11:54;;;;;;;;;39.75;36.00;;;;;6.88;68.57;101293.56;5001996;28;47087;-81
2022/12/05 02:14:29;;;;;;;;;37.75;34.50;;;;;6.91;68.42;101291.75;5011809;28;45957;-81
2022/12/05 02:17:13;;;;;;;;;41.25;38.50;;;;;6.84;68.17;101279.44;4999530;28;45516;-81
2022/12/05 02:19:57;;;;;;;;;45.50;37.50;;;;;6.87;68.57;101287.38;5015679;28;45318;-81
2022/12/05 02:22:22;;;;;;;;;43.50;36.50;;;;;6.91;68.46;101290.88;5007778;28;45499;-81
2022/12/05 02:25:06;;;;;;;;;37.25;29.25;;;;;6.93;68.76;101287.31;5017092;28;45367;-81
2022/12/05 02:27:56;;;;;;;;;43.75;38.75;;;;;6.93;68.56;101289.97;5012407;28;45360;-82
2022/12/05 02:30:23;;;;;;;;;40.75;33.75;;;;;6.84;68.16;101282.97;5005090;28;45274;-82
2022/12/05 02:32:58;;;;;;;;;44.75;38.75;;;;;6.79;68.45;101289.22;5004666;28;45371;-82
2022/12/05 02:35:46;;;;;;;;;38.25;37.25;;;;;6.79;68.47;101283.91;5008264;28;45321;-81
2022/12/05 02:38:23;;;;;;;;;45.00;40.50;;;;;6.78;68.64;101287.44;5012652;28;45403;-82
2022/12/05 02:41:07;;;;;;;;;46.50;41.00;;;;;6.79;68.15;101287.44;5005271;28;45425;-81
2022/12/05 02:43:55;;;;;;;;;19.25;14.75;;;;;6.79;68.06;101297.16;4999550;28;45836;-81
2022/12/05 02:46:24;;;;;;;;;49.50;40.75;;;;;6.76;68.56;101290.09;5000769;28;45498;-81
2022/12/05 02:48:55;;;;;;;;;50.00;41.25;;;;;6.75;68.14;101287.47;5009303;28;45325;-82
2022/12/05 02:51:24;;;;;;;;;50.75;38.25;;;;;6.70;68.72;101283.97;5012154;28;45423;-82
2022/12/05 02:53:50;;;;;;;;;38.50;34.00;;;;;6.71;68.81;101283.94;5007158;28;45397;-82
2022/12/05 02:56:17;;;;;;;;;38.50;32.00;;;;;6.72;68.67;101287.50;4998058;28;45831;-82
2022/12/05 02:58:49;;;;;;;;;48.00;36.50;;;;;6.72;68.91;101288.38;5000898;28;45463;-82
2022/12/05 03:01:16;;;;;;;;;55.00;41.00;;;;;6.73;68.74;101283.94;5006261;28;45268;-82
2022/12/05 03:03:42;;;;;;;;;46.25;40.50;;;;;6.73;68.40;101283.94;5007101;28;45598;-82
2022/12/05 03:06:19;;;;;;;;;47.25;39.25;;;;;6.74;67.88;101280.41;5004560;28;46499;-82
2022/12/05 03:08:52;;;;;;;;;39.50;35.75;;;;;6.72;68.96;101283.06;5009039;28;45516;-82
2022/12/05 03:11:17;;;;;;;;;47.00;38.00;;;;;6.74;68.66;101288.38;5000525;28;45529;-82
2022/12/05 03:13:53;;;;;;;;;42.50;37.25;;;;;6.76;68.88;101291.88;5012143;28;45478;-82
2022/12/05 03:16:34;;;;;;;;;50.50;41.50;;;;;6.80;68.59;101285.66;5005416;28;45382;-82
2022/12/05 03:19:13;;;;;;;;;33.25;31.00;;;;;6.76;68.52;101283.94;5005622;28;46013;-82
2022/12/05 03:21:51;;;;;;;;;32.75;31.75;;;;;6.68;68.46;101289.28;5001707;28;45393;-82
2022/12/05 03:24:16;;;;;;;;;43.50;37.75;;;;;6.63;67.95;101292.00;5008967;28;46876;-82
2022/12/05 03:27:19;;;;;;;;;49.50;41.25;;;;;6.60;68.39;101299.06;5003342;28;46057;-82
2022/12/05 03:30:00;;;;;;;;;28.25;20.50;;;;;6.59;68.50;101298.19;5001408;28;45371;-82
2022/12/05 03:32:50;;;;;;;;;35.50;31.00;;;;;6.59;68.72;101298.19;5008122;28;45727;-82
2022/12/05 03:35:37;;;;;;;;;35.75;33.50;;;;;6.53;68.50;101295.56;5007343;28;46190;-83
2022/12/05 03:38:12;;;;;;;;;40.25;32.50;;;;;6.51;69.06;101296.50;5004811;28;45309;-82
2022/12/05 03:41:00;;;;;;;;;37.25;31.25;;;;;6.54;68.89;101301.78;5003440;28;45341;-83
2022/12/05 03:43:46;;;;;;;;;37.50;31.00;;;;;6.54;69.23;101300.00;5008195;28;45491;-82
2022/12/05 03:46:25;;;;;;;;;30.75;21.25;;;;;6.59;69.11;101307.94;5006780;28;45470;-82
2022/12/05 03:49:20;;;;;;;;;36.50;33.50;;;;;6.62;68.90;101299.97;5007860;28;45282;-82
2022/12/05 03:52:02;;;;;;;;;29.25;28.75;;;;;6.55;68.55;101301.78;4982519;28;45457;-82
2022/12/05 03:54:45;;;;;;;;;43.00;34.25;;;;;6.53;68.69;101319.44;5009479;28;45480;-82
2022/12/05 03:57:26;;;;;;;;;37.25;35.50;;;;;6.52;69.03;101311.53;5008844;28;46217;-83
2022/12/05 04:00:00;;;;;;;;;38.00;34.75;;;;;6.55;68.79;101322.09;5000639;28;45413;-82
2022/12/05 04:02:44;;;;;;;;;43.25;36.25;;;;;6.52;68.85;101323.00;5017341;28;46554;-82
2022/12/05 04:05:21;;;;;;;;;49.50;36.50;;;;;6.53;69.12;101324.75;5003065;28;45775;-82
2022/12/05 04:08:02;;;;;;;;;43.75;33.50;;;;;6.54;68.68;101331.81;5001354;28;45607;-82
2022/12/05 04:10:31;;;;;;;;;42.25;38.25;;;;;6.52;69.33;101332.75;5000489;28;46074;-82
2022/12/05 04:13:16;;;;;;;;;43.25;38.25;;;;;6.53;69.44;101345.97;5006735;28;45480;-81
2022/12/05 04:18:33;;;;;;;;;40.75;36.75;;;;;6.60;69.51;101339.75;5008216;28;45460;-81
2022/12/05 04:25:31;;;;;;;;;48.00;37.75;;;;;6.60;68.95;101333.53;5010734;28;45531;-82
2022/12/05 04:26:32;;;;;;;;;41.25;36.50;;;;;6.54;68.90;101336.25;5012784;28;45471;-81
2022/12/05 04:29:10;;;;;;;;;46.50;38.75;;;;;6.55;68.72;101338.91;5000060;28;45464;-82
2022/12/05 04:31:41;;;;;;;;;39.75;32.75;;;;;6.53;68.73;101338.00;5007435;28;45510;-82
2022/12/05 04:34:09;;;;;;;;;42.50;37.50;;;;;6.53;69.01;101338.00;5006187;28;45408;-81
2022/12/05 04:36:42;;;;;;;;;46.25;38.50;;;;;6.61;68.88;101338.84;5007582;28;45242;-82
2022/12/05 04:39:18;;;;;;;;;47.75;39.00;;;;;6.64;68.86;101345.91;4993625;28;47258;-82
2022/12/05 04:42:13;;;;;;;;;42.25;39.50;;;;;6.60;69.43;101342.41;5000068;28;45893;-82
2022/12/05 04:44:59;;;;;;;;;9.25;7.00;;;;;6.67;68.90;101349.44;5001296;28;45421;-81
2022/12/05 04:47:30;;;;;;;;;42.00;37.25;;;;;6.68;68.93;101347.66;5003732;28;46022;-82
2022/12/05 04:49:57;;;;;;;;;45.00;37.00;;;;;6.71;68.91;101346.75;5015502;28;45555;-81
2022/12/05 04:52:24;;;;;;;;;43.25;41.00;;;;;6.65;69.10;101348.56;5007835;28;45686;-81
2022/12/05 04:54:56;;;;;;;;;40.75;34.00;;;;;6.67;69.62;101359.16;5010100;28;45495;-82
2022/12/05 04:57:28;;;;;;;;;43.00;37.50;;;;;6.67;69.08;101365.34;5004745;28;45446;-82
2022/12/05 04:59:54;;;;;;;;;42.75;33.25;;;;;6.64;69.34;101365.34;5002072;28;47066;-82
2022/12/05 05:02:26;;;;;;;;;49.25;42.25;;;;;6.65;69.36;101368.91;5007732;28;45490;-82
2022/12/05 05:04:55;;;;;;;;;47.50;40.75;;;;;6.64;69.26;101360.06;5007051;28;45435;-82
2022/12/05 05:07:20;;;;;;;;;48.50;38.50;;;;;6.65;69.30;101360.97;5005200;28;45377;-82
2022/12/05 05:09:45;;;;;;;;;34.25;33.00;;;;;6.67;68.92;101360.03;5007259;28;45345;-81
2022/12/05 05:12:11;;;;;;;;;48.50;40.75;;;;;6.69;68.81;101354.72;5012653;28;45720;-82
2022/12/05 05:14:36;;;;;;;;;45.75;36.50;;;;;6.72;68.88;101364.47;5005665;28;45399;-82
2022/12/05 05:17:02;;;;;;;;;39.75;36.50;;;;;6.74;68.90;101362.66;5009094;28;45391;-82
2022/12/05 05:19:28;;;;;;;;;37.00;36.25;;;;;6.74;68.58;101367.97;4998406;28;45394;-82
2022/12/05 05:21:53;;;;;;;;;45.50;39.00;;;;;6.73;69.00;101369.72;5005705;28;45238;-82
2022/12/05 05:24:20;;;;;;;;;37.50;35.50;;;;;6.74;69.16;101362.66;5000779;28;45475;-82
2022/12/05 05:26:46;;;;;;;;;45.75;37.25;;;;;6.76;68.98;101374.13;5005541;28;45681;-82
2022/12/05 05:29:13;;;;;;;;;31.75;31.00;;;;;6.75;69.01;101372.38;5012316;28;45487;-82
2022/12/05 05:31:40;;;;;;;;;39.75;31.25;;;;;6.76;69.03;101375.00;4999542;28;45405;-82
2022/12/05 05:34:06;;;;;;;;;44.75;32.50;;;;;6.80;68.53;101375.88;5009415;28;45420;-82
2022/12/05 05:36:31;;;;;;;;;49.00;37.75;;;;;6.80;69.04;101374.13;5007482;28;45310;-82
2022/12/05 05:38:59;;;;;;;;;45.75;37.00;;;;;6.79;69.01;101380.31;5001037;28;45478;-82
2022/12/05 05:41:33;;;;;;;;;25.25;22.50;;;;;6.78;68.65;101373.25;5012463;28;45278;-82
2022/12/05 05:43:59;;;;;;;;;41.00;32.00;;;;;6.83;68.48;101373.19;4999218;28;45262;-82
2022/12/05 05:46:27;;;;;;;;;36.25;31.50;;;;;6.83;68.64;101381.16;5002574;28;45588;-82
2022/12/05 05:48:53;;;;;;;;;34.00;30.00;;;;;6.83;68.77;101383.81;5005928;28;45410;-82
2022/12/05 05:51:20;;;;;;;;;38.75;33.25;;;;;6.85;68.80;101387.38;4999243;28;45379;-82
2022/12/05 05:53:47;;;;;;;;;42.25;35.00;;;;;6.79;69.03;101390.03;4997694;28;45426;-82
2022/12/05 05:56:15;;;;;;;;;40.25;36.25;;;;;6.82;68.57;101390.91;5003062;28;45405;-82
2022/12/05 05:58:41;;;;;;;;;38.75;33.50;;;;;6.84;68.59;101396.19;5006097;28;45481;-82
2022/12/05 06:01:12;;;;;;;;;43.50;35.50;;;;;6.85;68.65;101397.97;5002949;28;45437;-81
2022/12/05 06:03:38;;;;;;;;;31.50;29.50;;;;;6.84;68.79;101399.72;5004769;28;45393;-82
2022/12/05 06:06:06;;;;;;;;;34.25;32.75;;;;;6.87;69.04;101401.50;5006217;28;45440;-82
2022/12/05 06:08:34;;;;;;;;;25.25;23.25;;;;;6.80;68.36;101415.66;5002405;28;45530;-81
2022/12/05 06:11:04;;;;;;;;;29.00;29.00;;;;;6.77;68.76;101419.25;5006868;28;45375;-81
2022/12/05 06:13:30;;;;;;;;;27.75;23.75;;;;;6.78;68.55;101417.47;5012057;28;46099;-82
2022/12/05 06:15:55;;;;;;;;;32.00;26.75;;;;;6.68;68.56;101409.56;5005889;28;45483;-81
2022/12/05 06:18:20;;;;;;;;;26.50;20.75;;;;;6.70;68.79;101412.22;5005258;28;45503;-81
2022/12/05 06:20:56;;;;;;;;;31.50;25.25;;;;;6.67;68.85;101412.22;5002688;28;45603;-81
2022/12/05 06:23:22;;;;;;;;;25.75;20.25;;;;;6.73;68.20;101421.91;5011281;28;45454;-82
2022/12/05 06:25:49;;;;;;;;;26.75;24.00;;;;;6.71;68.26;101416.63;5014385;28;45601;-82
2022/12/05 06:28:16;;;;;;;;;29.25;26.75;;;;;6.74;68.53;101424.56;5000867;28;45556;-81
2022/12/05 06:30:41;;;;;;;;;24.25;22.00;;;;;6.72;68.80;101423.69;5011363;28;46078;-82
2022/12/05 06:33:07;;;;;;;;;38.75;30.00;;;;;6.66;68.54;101429.91;5013255;28;45512;-81
2022/12/05 06:35:32;;;;;;;;;24.75;21.25;;;;;6.64;69.02;101429.03;5004431;28;45337;-81
2022/12/05 06:37:57;;;;;;;;;30.25;25.25;;;;;6.65;68.80;101430.81;5001723;28;45238;-81
2022/12/05 06:40:23;;;;;;;;;30.25;25.00;;;;;6.70;69.02;101437.84;5000221;28;45459;-81
2022/12/05 06:42:48;;;;;;;;;34.75;31.75;;;;;6.72;69.12;101436.09;5005150;28;45592;-82
2022/12/05 06:45:13;;;;;;;;;33.50;29.75;;;;;6.63;68.57;101426.38;5000860;28;45865;-78
2022/12/05 06:47:39;;;;;;;;;37.00;25.75;;;;;6.68;68.29;101449.38;5006167;28;47557;-77
2022/12/05 06:50:05;;;;;;;;;30.25;26.50;;;;;6.61;68.07;101444.09;4995841;28;45368;-78
2022/12/05 06:52:30;;;;;;;;;30.50;28.00;;;;;6.58;68.04;101449.41;5008221;28;45455;-78
2022/12/05 06:54:55;;;;;;;;;35.75;28.25;;;;;6.61;68.92;101449.41;5005979;28;45337;-78
2022/12/05 06:57:21;;;;;;;;;36.00;31.25;;;;;6.57;68.70;101440.56;5011023;28;46437;-77
2022/12/05 06:59:46;;;;;;;;;37.00;28.25;;;;;6.57;68.40;101445.00;4981354;28;45587;-77
2022/12/05 07:02:12;;;;;;;;;36.00;32.25;;;;;6.52;68.62;101445.03;5005039;28;45385;-77
2022/12/05 07:04:38;;;;;;;;;30.75;24.00;;;;;6.54;68.68;101458.28;5011306;28;45475;-77
2022/12/05 07:07:03;;;;;;;;;31.25;28.25;;;;;6.51;69.23;101461.81;5005335;28;45336;-77
2022/12/05 07:12:15;;;;;;;;;35.75;24.50;;;;;6.55;69.35;101467.97;5005248;28;45496;-77
2022/12/05 07:14:41;;;;;;;;;38.00;32.75;;;;;6.56;69.03;101477.72;5000625;28;45561;-76
2022/12/05 07:17:06;;;;;;;;;31.50;25.25;;;;;6.57;68.82;101483.00;5003047;28;45494;-77
2022/12/05 07:19:32;;;;;;;;;39.50;31.25;;;;;6.56;69.27;101478.59;5004144;28;45326;-77
2022/12/05 07:21:57;;;;;;;;;28.50;28.50;;;;;6.51;68.81;101475.06;5001937;28;45487;-77
2022/12/05 07:24:22;;;;;;;;;29.50;29.50;;;;;6.52;69.62;101474.19;5008851;28;45394;-74
2022/12/05 07:26:48;;;;;;;;;33.25;29.25;;;;;6.57;68.97;101485.66;5001443;28;45643;-74
2022/12/05 07:29:13;;;;;;;;;29.50;25.25;;;;;6.56;69.49;101477.72;5008217;28;45286;-74
2022/12/05 07:31:38;;;;;;;;;31.50;28.50;;;;;6.59;69.11;101488.31;5003921;28;45572;-74
2022/12/05 07:34:03;;;;;;;;;25.50;22.75;;;;;6.46;68.38;101480.38;5003758;28;46621;-74
2022/12/05 07:36:29;;;;;;;;;29.00;24.25;;;;;6.49;68.92;101487.47;5003322;28;54640;-74
2022/12/05 07:38:56;;;;;;;;;30.75;27.00;;;;;6.41;68.19;101495.44;5009298;28;45301;-74
2022/12/05 07:41:24;;;;;;;;;22.00;21.00;;;;;6.38;68.75;101506.06;5007671;28;45561;-74
2022/12/05 07:43:51;;;;;;;;;31.75;23.25;;;;;6.40;68.87;101509.59;5010380;28;45615;-74
2022/12/05 07:46:17;;;;;;;;;25.50;23.75;;;;;6.42;69.11;101509.59;5002373;28;45498;-73
2022/12/05 07:48:43;;;;;;;;;19.00;18.50;;;;;6.41;68.79;101510.47;5010996;28;45941;-73
2022/12/05 07:51:09;;;;;;;;;31.25;26.75;;;;;6.43;69.01;101517.56;5005148;28;45292;-68
2022/12/05 07:53:35;;;;;;;;;29.75;17.75;;;;;6.48;68.80;101523.72;5009760;28;45330;-68
2022/12/05 07:56:04;;;;;;;;;34.00;27.75;;;;;6.49;68.71;101511.34;4998213;28;45274;-70
2022/12/05 07:58:30;;;;;;;;;26.75;21.50;;;;;6.49;69.12;101514.88;4998859;28;45713;-70
2022/12/05 08:00:57;;;;;;;;;28.50;24.25;;;;;6.50;68.94;101515.75;4998423;28;45407;-69
2022/12/05 08:03:23;;;;;;;;;27.00;24.25;;;;;6.54;69.31;101514.84;5003421;28;45321;-69
2022/12/05 08:05:48;;;;;;;;;27.25;23.50;;;;;6.52;69.48;101521.94;4993764;28;48209;-69
2022/12/05 08:08:14;;;;;;;;;26.50;24.00;;;;;6.51;69.34;101528.13;5003770;28;45371;-70
2022/12/05 08:10:39;;;;;;;;;31.00;27.25;;;;;6.55;69.49;101531.63;5006274;28;45477;-69
2022/12/05 08:13:06;;;;;;;;;26.25;24.00;;;;;6.56;68.82;101544.03;5000563;28;55607;-68
2022/12/05 08:15:33;;;;;;;;;35.75;28.50;;;;;6.54;69.57;101544.03;5016020;28;45521;-68
2022/12/05 08:17:59;;;;;;;;;28.25;23.50;;;;;6.56;69.08;101544.03;5017030;28;45401;-68
2022/12/05 08:20:24;;;;;;;;;27.00;23.75;;;;;6.61;68.91;101547.56;5010498;28;45597;-73
2022/12/05 08:22:52;;;;;;;;;28.75;27.00;;;;;6.64;68.45;101550.19;5006993;28;45644;-72
2022/12/05 08:25:17;;;;;;;;;34.50;28.75;;;;;6.62;68.96;101536.06;5010829;28;45275;-73
2022/12/05 08:27:42;;;;;;;;;31.50;30.75;;;;;6.67;68.72;101542.22;5007116;28;45507;-73
2022/12/05 08:30:08;;;;;;;;;30.75;26.00;;;;;6.67;68.73;101540.44;5012010;28;45273;-72
2022/12/05 08:32:33;;;;;;;;;30.00;28.25;;;;;6.72;68.37;101539.56;5004300;28;45433;-73
2022/12/05 08:34:58;;;;;;;;;34.50;31.50;;;;;6.72;68.43;101547.53;5002034;28;45435;-73
2022/12/05 08:37:24;;;;;;;;;33.50;27.00;;;;;6.65;68.24;101544.88;5012614;28;45268;-73
2022/12/05 08:39:49;;;;;;;;;37.25;31.00;;;;;6.63;68.26;101540.47;5007796;28;45293;-73
2022/12/05 08:42:14;;;;;;;;;35.75;30.75;;;;;6.64;68.33;101560.81;4997938;28;45467;-73
2022/12/05 08:44:40;;;;;;;;;38.75;33.00;;;;;6.52;68.33;101553.78;5011058;28;46082;-73
2022/12/05 08:47:05;;;;;;;;;39.25;32.25;;;;;6.46;68.77;101557.31;5010709;28;45242;-73
2022/12/05 08:49:30;;;;;;;;;31.25;28.00;;;;;6.41;68.44;101564.38;5000758;28;45508;-73
2022/12/05 08:51:56;;;;;;;;;35.75;28.75;;;;;6.42;69.03;101554.69;5001474;28;45358;-74
2022/12/05 08:54:21;;;;;;;;;36.25;30.00;;;;;6.40;69.72;101556.44;5012053;28;45964;-73
2022/12/05 08:56:49;;;;;;;;;36.75;31.50;;;;;6.40;69.54;101560.00;4998334;28;45508;-74
2022/12/05 08:59:15;;;;;;;;;34.75;33.50;;;;;6.38;69.08;101555.56;5010226;28;45439;-73
2022/12/05 09:01:41;;;;;;;;;29.25;25.75;;;;;6.42;69.48;101567.94;5013632;28;46850;-74
2022/12/05 09:04:06;;;;;;;;;33.00;30.00;;;;;6.40;69.83;101567.03;5007366;28;46282;-71
2022/12/05 09:06:33;;;;;;;;;35.25;28.25;;;;;6.46;69.18;101575.00;5008034;28;45688;-73
2022/12/05 09:09:04;;;;;;;;;27.25;23.75;;;;;6.36;69.26;101571.47;5010376;28;45436;-71
2022/12/05 09:11:32;;;;;;;;;32.75;24.25;;;;;6.44;70.02;101579.44;5008590;28;45519;-81
2022/12/05 09:13:59;;;;;;;;;40.00;32.50;;;;;6.42;69.62;101579.44;5011761;28;46600;-77
2022/12/05 09:16:30;;;;;;;;;33.00;30.25;;;;;6.43;69.87;101575.91;5002959;28;45321;-74
2022/12/05 09:18:56;;;;;;;;;28.75;27.75;;;;;6.46;69.13;101580.31;4999752;28;45680;-63
2022/12/05 09:21:24;;;;;;;;;37.50;30.25;;;;;6.35;69.84;101568.81;5018235;28;45364;-74
2022/12/05 09:23:51;;;;;;;;;35.75;32.00;;;;;6.41;69.94;101579.44;5009970;28;46240;-78
2022/12/05 09:26:20;;;;;;;;;35.25;31.00;;;;;6.46;70.19;101583.81;5017889;28;45591;-81
2022/12/05 09:28:46;;;;;;;;;31.75;28.50;;;;;6.49;69.81;101585.59;5015983;28;45445;-81
2022/12/05 09:31:17;;;;;;;;;33.75;30.00;;;;;6.49;70.01;101585.59;5002785;28;45533;-80
2022/12/05 09:33:44;;;;;;;;;33.25;30.75;;;;;6.53;69.37;101584.69;5002931;28;45425;-81
2022/12/05 09:36:15;;;;;;;;;44.00;33.00;;;;;6.54;69.64;101591.78;5005763;28;45342;-82
2022/12/05 09:38:41;;;;;;;;;48.75;35.25;;;;;6.58;69.32;101590.91;5001909;28;45281;-81
2022/12/05 09:44:45;;;;;;;;;33.50;29.50;;;;;6.61;69.77;101593.53;5007247;28;45429;-80
2022/12/05 09:47:14;;;;;;;;;40.75;33.75;;;;;6.62;69.28;101595.31;4997890;28;45865;-78
2022/12/05 09:49:52;;;;;;;;;43.75;35.00;;;;;6.64;69.52;101600.59;5012029;28;45340;-80
2022/12/05 09:52:31;;;;;;;;;42.25;37.50;;;;;6.66;69.65;101604.13;5018545;28;45494;-80
2022/12/05 09:55:04;;;;;;;;;31.75;26.00;;;;;6.68;69.86;101603.25;5005525;28;46080;-80
2022/12/05 09:57:44;;;;;;;;;37.25;35.00;;;;;6.72;69.19;101611.22;5006590;28;45479;-70
2022/12/05 10:00:10;;;;;;;;;42.75;37.00;;;;;6.72;69.56;101608.56;5010750;28;45467;-73
2022/12/05 10:03:05;;;;;;;;;36.75;31.75;;;;;6.72;69.11;101614.75;5014611;28;45439;-77
2022/12/05 10:05:48;;;;;;;;;38.75;36.75;;;;;6.70;68.89;101620.91;5009542;28;45342;-77
2022/12/05 10:08:23;;;;;;;;;33.00;29.50;;;;;6.64;68.79;101605.91;5014600;28;45787;-79
2022/12/05 10:11:09;;;;;;;;;40.25;37.50;;;;;6.59;69.35;101608.56;5009999;28;45400;-79
2022/12/05 10:13:59;;;;;;;;;31.00;27.50;;;;;6.61;69.41;101608.56;5011072;28;45472;-79
2022/12/05 10:16:37;;;;;;;;;43.00;33.00;;;;;6.59;69.35;101618.31;5000553;28;45567;-80
2022/12/05 10:19:12;;;;;;;;;37.25;32.25;;;;;6.58;69.45;101613.88;5008660;28;45501;-79
2022/12/05 10:22:12;;;;;;;;;41.50;33.00;;;;;6.59;69.62;101621.84;5011632;28;45365;-79
2022/12/05 10:24:42;;;;;;;;;28.00;27.75;;;;;6.62;69.38;101621.84;5010118;28;45676;-80
2022/12/05 10:27:17;;;;;;;;;34.50;31.25;;;;;6.62;69.52;101624.47;5013931;28;47353;-79
2022/12/05 10:30:00;;;;;;;;;33.50;28.50;;;;;6.65;69.65;101620.97;5004833;28;45484;-79
2022/12/05 10:32:43;;;;;;;;;44.50;34.50;;;;;6.64;69.06;101614.75;5002436;28;45484;-79
2022/12/05 10:35:39;;;;;;;;;41.25;31.75;;;;;6.69;69.21;101614.75;5011746;28;45649;-79
2022/12/05 10:38:20;;;;;;;;;33.50;29.00;;;;;6.71;69.03;101614.75;5004997;28;46161;-79
2022/12/05 10:40:50;;;;;;;;;35.50;33.25;;;;;6.67;69.69;101620.06;5015978;28;45489;-82
2022/12/05 10:43:29;;;;;;;;;38.50;32.75;;;;;6.70;69.72;101613.88;5017125;28;45493;-81
2022/12/05 10:45:56;;;;;;;;;30.25;27.75;;;;;6.73;68.95;101621.78;5009587;28;46050;-81
2022/12/05 10:48:22;;;;;;;;;32.75;27.25;;;;;6.74;69.26;101620.91;5008137;28;45402;-80
2022/12/05 10:50:54;;;;;;;;;38.00;32.00;;;;;6.78;69.43;101627.09;5009767;28;45358;-81
2022/12/05 10:53:25;;;;;;;;;33.50;29.75;;;;;6.78;69.15;101619.13;5003318;28;45517;-81
2022/12/05 10:55:51;;;;;;;;;41.00;33.00;;;;;6.83;69.03;101626.22;5016450;28;45365;-79
2022/12/05 10:58:29;;;;;;;;;31.75;30.50;;;;;6.81;68.87;101624.44;5012925;28;46358;-79
2022/12/05 11:01:08;;;;;;;;;44.00;39.25;;;;;6.82;68.79;101624.44;5010947;28;45378;-79
2022/12/05 11:03:36;;;;;;;;;43.75;34.75;;;;;6.84;68.68;101622.66;5009604;28;45704;-78
2022/12/05 11:06:15;;;;;;;;;36.25;33.25;;;;;6.86;69.03;101618.22;5008335;28;45568;-77
2022/12/05 11:08:41;;;;;;;;;35.50;33.75;;;;;6.86;68.94;101618.22;5006733;28;47041;-78
2022/12/05 11:11:18;;;;;;;;;37.25;33.50;;;;;6.89;68.77;101625.31;5015907;28;45397;-79
2022/12/05 11:14:21;;;;;;;;;37.50;33.00;;;;;6.91;69.28;101626.19;5010182;28;45440;-75
2022/12/05 11:16:55;;;;;;;;;47.00;41.00;;;;;6.95;68.87;101621.72;4995922;28;45539;-76
2022/12/05 11:19:20;;;;;;;;;43.00;36.00;;;;;6.97;68.81;101622.63;5014021;28;47400;-74
2022/12/05 11:21:47;;;;;;;;;50.50;40.25;;;;;6.96;68.58;101627.03;5008923;28;47110;-75
2022/12/05 11:24:29;;;;;;;;;45.75;37.25;;;;;7.00;68.59;101628.81;4995512;28;45694;-80
2022/12/05 11:27:28;;;;;;;;;46.00;35.75;;;;;6.99;68.35;101632.34;5009944;28;45452;-81
2022/12/05 11:29:58;;;;;;;;;46.75;36.00;;;;;6.92;68.44;101624.44;5018570;28;45776;-82
2022/12/05 11:32:27;;;;;;;;;40.75;38.75;;;;;6.85;68.84;101623.56;5013294;28;45481;-78
2022/12/05 11:35:11;;;;;;;;;49.75;40.25;;;;;6.88;68.75;101623.53;5012143;28;45527;-76
2022/12/05 11:38:02;;;;;;;;;44.75;35.00;;;;;6.88;68.68;101627.97;5008381;28;45521;-76
2022/12/05 11:40:42;;;;;;;;;44.25;37.00;;;;;6.91;68.66;101625.31;5002716;28;45472;-73
2022/12/05 11:43:27;;;;;;;;;36.00;32.75;;;;;6.94;68.43;101628.81;5012429;28;46848;-84
2022/12/05 11:46:13;;;;;;;;;39.75;35.00;;;;;6.95;68.03;101635.91;5013190;28;45603;-84